AirNav   Pilot Hours Calculator
 
 1150 users online  

MN65 Meeker Memorial Hospital Heliport
Litchfield, Minnesota, USA

GOING TO LITCHFIELD?


FAA INFORMATION EFFECTIVE 15 JULY 2021

Location

FAA Identifier: MN65
Lat/Long: 45-07-11.2000N 094-31-47.4000W
45-07.186667N 094-31.790000W
45.1197778,-94.5298333
(estimated)
Elevation: 1135 ft. / 346 m (estimated)
Variation: 04E (1990)
Time zone: UTC -5 (UTC -6 during Standard Time)
Zip code: 55355

Heliport Operations

Heliport use: Private use, MEDICAL USE.
Activation date: 10/1992
Control tower: no
ARTCC: MINNEAPOLIS CENTER
FSS: PRINCETON FLIGHT SERVICE STATION
Attendance: CONTINUOUS
Wind indicator: lighted
Segmented circle: no
Lights: FOR PERIMETER LGTS CALL 612-693-3242.

Heliport Communications

WX AWOS-3 at LJF (1.7 nm SE): 119.65 (320-693-6456)
WX AWOS-3 at HCD (17 nm S): 118.525 (320-587-3343)
WX AWOS-3PT at PEX (18 nm NW): 120.35 (320-243-4538)

Nearby radio navigation aids

VOR radial/distance  VOR name  Freq  Var
DWNr294/3.8DARWIN VORTAC109.0007E
BDHr086/25.3WILLMAR VOR/DME113.7004E
STCr215/32.5ST CLOUD VOR/DME112.1003E

Heliport Services

Runway Information

Helipad H1

Dimensions: 45 x 45 ft. / 14 x 14 m
Surface: concrete
Runway edge lights: PERI
Latitude: 45-07.186667N
Longitude: 094-31.790000W
Elevation: 1135.0 ft.
Traffic pattern: leftleft

Heliport Ownership and Management from official FAA records

Ownership: Publicly-owned
Owner: MEEKER MEMORIAL HOSP
612 S SIBLEY AVE
LITCHFIELD, MN 55355
Phone 612-693-3242
Manager: KURT WALDBILLIG, CEO
612 S SIBLEY AVE
LITCHFIELD, MN 55355
Phone 320-693-4507

Additional Remarks

FOR CD CTC MINNEAPOLIS ARTCC AT 651-463-5588.

Instrument Procedures

There are no published instrument procedures at MN65.

Some nearby airports with instrument procedures:

KLJF - Litchfield Municipal Airport (2 nm SE)
KHCD - Hutchinson Municipal Airport-Butler Field (17 nm S)
KPEX - Paynesville Municipal Airport (18 nm NW)
KMGG - Maple Lake Municipal Airport-Bill Mavencamp Sr Field (24 nm E)
KBDH - Willmar Municipal Airport-John L Rice Fiel (25 nm W)
 
Loc | Ops | Rwys | IFR | FBO | Links
Com | Nav | Svcs | Stats | Notes
Area around MN65 (Meeker Memorial Hospital Heliport)
 
Road maps at: MapQuest Bing Google
 
Aerial photo
No photo
 
Sectional chart

 
Airport distance calculator
Flying to Meeker Memorial Hospital Heliport? Find the distance to fly.

From to MN65

Sunrise and sunset
Times for 28-Jul-2021
 Local
(UTC-5)
 Zulu
(UTC)
Morning civil twilight05:2510:25
Sunrise06:0011:00
Sunset20:5001:50
Evening civil twilight21:2402:24

Current date and time
Zulu (UTC)  29-Jul-2021 00:06:15
Local (UTC-5)  28-Jul-2021 19:06:15
 
METAR
KLJF 
2nm SE 
282345Z AUTO 23004KT 10SM CLR 33/26 A2982 RMK AO2
KHCD 
17nm SE 
282355Z AUTO 20006KT 10SM CLR 33/27 A2984 RMK AO2 T03260269 10352 20291
KPEX 
18nm NW 
282355Z AUTO 27006KT 10SM CLR 33/28 A2983 RMK AO2
TAF
KSTC 
33nm NE 
282245Z 2823/2918 19009KT P6SM SCT250 FM290000 22010G17KT P6SM SCT090 BKN150 TEMPO 2900/2903 6SM -SHRA BR BKN050 FM290300 33008KT P6SM SCT250
NOTAMs
Click for the latest NOTAMs
NOTAMs are issued by the DoD/FAA and will open in a separate window not controlled by AirNav.

 

 
 

Would you like to see your business listed on this page?

 If your business provides an interesting product or service to pilots, flight crews, aircraft, or users of the Meeker Memorial Hospital Heliport, you should consider listing it here.  To start the listing process, click on the button below
 
Add a business
 

Other Pages about Meeker Memorial Hospital Heliport

Update a link
 
Copyright © AirNav, LLC. All rights reserved. Privacy Policy  Contact